Asian Empire — 3FQF8 — position and weather

sailwx.info

Track history (hours):
 
Tides and Currents Weather Stations Pressure Air Temp Water Temp Dewpoint Dewpoint Depression Visibility Wind Speed Wind Dir Waves Ship Positions

Asian Empire

Last reported at 2017-Mar-26 16:32 UTC. Time now 2017-Mar-29 13:29 UTC.
Position N 35°50' E 010°40'.

Length 229 m; draft 8.2 m.

Type: Cargo ship. MMSI: 245087096.

Date/timePositionNaut miles runAvg speedWind from/ knotsBaromVisibWave heightAir tempDewpointWater temp
2017-Mar-26 16:32N 35°50' E 010°40'  
2017-Mar-20 22:07N 35°51' E 010°41'0 0.0
2017-Mar-20 21:31N 35°51' E 010°41'0 0.0
2017-Mar-20 20:31N 35°51' E 010°41'0 0.0
2017-Mar-20 19:31N 35°51' E 010°41'0 0.0
2017-Mar-20 18:31N 35°51' E 010°41'0 0.0
2017-Mar-20 17:31N 35°51' E 010°41'0 0.0
2017-Mar-20 16:31N 35°51' E 010°41'0 0.0
2017-Mar-20 15:28N 35°51' E 010°41'0 0.0
2017-Mar-20 14:31N 35°51' E 010°41'0 0.0
2017-Mar-20 12:09N 35°51' E 010°41'0 0.0
2017-Mar-20 11:30N 35°51' E 010°41'1 0.9
2017-Mar-20 10:30N 35°51' E 010°42'1010.7
2017-Mar-20 09:33N 35°53' E 010°54'1211.7
2017-Mar-20 08:33N 35°55' E 011°08'1311.7
2017-Mar-20 07:25N 35°57' E 011°25'1012.0
2017-Mar-20 06:33N 35°59' E 011°37'1110.8
2017-Mar-20 05:33N 35°58' E 011°51'1110.9
2017-Mar-20 04:33N 35°60' E 012°04'1210.8
2017-Mar-20 03:28N 36°01' E 012°18'1611.9
2017-Mar-20 02:08N 36°03' E 012°38'711.9
2017-Mar-20 01:33N 36°04' E 012°46'1111.2
2017-Mar-20 00:33N 36°05' E 013°00'1110.6
2017-Mar-19 23:33N 36°07' E 013°13'1110.6
2017-Mar-19 22:33N 36°07' E 013°26'1010.3
2017-Mar-19 21:33N 36°08' E 013°39'1010.2
2017-Mar-19 20:33N 36°10' E 013°51'1110.7
2017-Mar-19 19:33N 36°10' E 014°05'1110.5
2017-Mar-19 18:33N 36°12' E 014°18'1110.5
2017-Mar-19 17:32N 36°13' E 014°31'1110.7
2017-Mar-19 16:33N 36°14' E 014°44'1010.0
2017-Mar-19 15:33N 36°15' E 014°56'10 9.7
2017-Mar-19 14:33N 36°16' E 015°08'  
Track history (hours):
 
Tides and Currents Weather Stations Pressure Air Temp Water Temp Dewpoint Dewpoint Depression Visibility Wind Speed Wind Dir Waves Ship Positions

Asian Empire

Last reported at 2017-Mar-26 16:32 UTC. Time now 2017-Mar-29 13:29 UTC.
Position N 35°50' E 010°40'.

Length 229 m; draft 8.2 m.

Type: Cargo ship. MMSI: 245087096.

Date/timePositionNaut miles runAvg speedWind from/ knotsBaromVisibWave heightAir tempDewpointWater temp
2017-Mar-26 16:32N 35°50' E 010°40'  
2017-Mar-20 22:07N 35°51' E 010°41'0 0.0
2017-Mar-20 21:31N 35°51' E 010°41'0 0.0
2017-Mar-20 20:31N 35°51' E 010°41'0 0.0
2017-Mar-20 19:31N 35°51' E 010°41'0 0.0
2017-Mar-20 18:31N 35°51' E 010°41'0 0.0
2017-Mar-20 17:31N 35°51' E 010°41'0 0.0
2017-Mar-20 16:31N 35°51' E 010°41'0 0.0
2017-Mar-20 15:28N 35°51' E 010°41'0 0.0
2017-Mar-20 14:31N 35°51' E 010°41'0 0.0
2017-Mar-20 12:09N 35°51' E 010°41'0 0.0
2017-Mar-20 11:30N 35°51' E 010°41'1 0.9
2017-Mar-20 10:30N 35°51' E 010°42'1010.7
2017-Mar-20 09:33N 35°53' E 010°54'1211.7
2017-Mar-20 08:33N 35°55' E 011°08'1311.7
2017-Mar-20 07:25N 35°57' E 011°25'1012.0
2017-Mar-20 06:33N 35°59' E 011°37'1110.8
2017-Mar-20 05:33N 35°58' E 011°51'1110.9
2017-Mar-20 04:33N 35°60' E 012°04'1210.8
2017-Mar-20 03:28N 36°01' E 012°18'1611.9
2017-Mar-20 02:08N 36°03' E 012°38'711.9
2017-Mar-20 01:33N 36°04' E 012°46'1111.2
2017-Mar-20 00:33N 36°05' E 013°00'1110.6
2017-Mar-19 23:33N 36°07' E 013°13'1110.6
2017-Mar-19 22:33N 36°07' E 013°26'1010.3
2017-Mar-19 21:33N 36°08' E 013°39'1010.2
2017-Mar-19 20:33N 36°10' E 013°51'1110.7
2017-Mar-19 19:33N 36°10' E 014°05'1110.5
2017-Mar-19 18:33N 36°12' E 014°18'1110.5
2017-Mar-19 17:32N 36°13' E 014°31'1110.7
2017-Mar-19 16:33N 36°14' E 014°44'1010.0
2017-Mar-19 15:33N 36°15' E 014°56'10 9.7
2017-Mar-19 14:33N 36°16' E 015°08'  

Dump ship's entire track history